createdAt,value
2022-12-07T00:00:04.114Z,96079.00
2022-12-07T00:00:13.795Z,96075.00
2022-12-07T00:00:23.794Z,96079.00
2022-12-07T00:00:35.735Z,96077.00
2022-12-07T00:00:43.794Z,96075.00
2022-12-07T00:00:55.745Z,96075.00
2022-12-07T00:01:05.764Z,96077.00
2022-12-07T00:01:13.813Z,96079.00
2022-12-07T00:01:23.802Z,96077.00
2022-12-07T00:01:33.794Z,96077.00
2022-12-07T00:01:44.266Z,96079.00
2022-12-07T00:01:53.826Z,96073.00
2022-12-07T00:02:03.891Z,96079.00
2022-12-07T00:02:13.834Z,96077.00
2022-12-07T00:02:23.898Z,96077.00
2022-12-07T00:02:33.870Z,96075.00
2022-12-07T00:02:43.886Z,96075.00
2022-12-07T00:02:53.853Z,96075.00
2022-12-07T00:03:03.837Z,96077.00
2022-12-07T00:03:13.867Z,96075.00
2022-12-07T00:03:23.832Z,96073.00
2022-12-07T00:03:33.910Z,96075.00
2022-12-07T00:03:43.824Z,96075.00
2022-12-07T00:03:53.828Z,96077.00
2022-12-07T00:04:03.777Z,96075.00
2022-12-07T00:04:13.802Z,96077.00
2022-12-07T00:04:23.786Z,96077.00
2022-12-07T00:04:33.814Z,96077.00
2022-12-07T00:04:43.778Z,96075.00
2022-12-07T00:04:53.778Z,96073.00
2022-12-07T00:05:03.776Z,96075.00
2022-12-07T00:05:13.777Z,96071.00
2022-12-07T00:05:23.776Z,96073.00
2022-12-07T00:05:33.776Z,96073.00
2022-12-07T00:05:43.776Z,96071.00
2022-12-07T00:05:53.776Z,96069.00
2022-12-07T00:06:03.786Z,96069.00
2022-12-07T00:06:13.777Z,96067.00
2022-12-07T00:06:23.776Z,96067.00
2022-12-07T00:06:35.716Z,96067.00
2022-12-07T00:06:43.777Z,96067.00
2022-12-07T00:06:53.783Z,96067.00
2022-12-07T00:07:03.780Z,96067.00
2022-12-07T00:07:13.777Z,96069.00
2022-12-07T00:07:27.854Z,96067.00
2022-12-07T00:07:33.858Z,96071.00
2022-12-07T00:07:43.807Z,96069.00
2022-12-07T00:07:53.840Z,96067.00
2022-12-07T00:08:03.829Z,96067.00
2022-12-07T00:08:13.861Z,96069.00
2022-12-07T00:08:23.826Z,96067.00
2022-12-07T00:08:33.767Z,96067.00
2022-12-07T00:08:43.768Z,96067.00
2022-12-07T00:08:53.768Z,96067.00
2022-12-07T00:09:03.768Z,96067.00
2022-12-07T00:09:15.706Z,96069.00
2022-12-07T00:09:23.757Z,96067.00
2022-12-07T00:09:33.757Z,96067.00
2022-12-07T00:09:43.767Z,96065.00
2022-12-07T00:09:54.327Z,96067.00
2022-12-07T00:10:04.030Z,96069.00
2022-12-07T00:10:13.758Z,96069.00
2022-12-07T00:10:23.757Z,96067.00
2022-12-07T00:10:33.759Z,96065.00
2022-12-07T00:10:43.758Z,96065.00
2022-12-07T00:10:53.771Z,96063.00
2022-12-07T00:11:03.768Z,96065.00
2022-12-07T00:11:13.768Z,96063.00
2022-12-07T00:11:23.761Z,96065.00
2022-12-07T00:11:33.760Z,96065.00
2022-12-07T00:11:43.753Z,96067.00
2022-12-07T00:11:53.765Z,96065.00
2022-12-07T00:12:03.749Z,96067.00
2022-12-07T00:12:13.759Z,96067.00
2022-12-07T00:12:23.760Z,96067.00
2022-12-07T00:12:33.751Z,96067.00
2022-12-07T00:12:43.769Z,96067.00
2022-12-07T00:12:53.748Z,96067.00
2022-12-07T00:13:03.858Z,96069.00
2022-12-07T00:13:13.748Z,96067.00
2022-12-07T00:13:23.750Z,96069.00
2022-12-07T00:13:33.747Z,96069.00
2022-12-07T00:13:43.749Z,96065.00
2022-12-07T00:13:53.772Z,96063.00
2022-12-07T00:14:03.749Z,96065.00
2022-12-07T00:14:13.738Z,96065.00
2022-12-07T00:14:23.742Z,96065.00
2022-12-07T00:14:33.739Z,96067.00
2022-12-07T00:14:43.741Z,96065.00
2022-12-07T00:14:53.737Z,96063.00
2022-12-07T00:15:03.740Z,96067.00
2022-12-07T00:15:13.749Z,96065.00
2022-12-07T00:15:23.741Z,96065.00
2022-12-07T00:15:33.741Z,96067.00
2022-12-07T00:15:43.739Z,96063.00
2022-12-07T00:15:53.740Z,96067.00
2022-12-07T00:16:03.857Z,96065.00
2022-12-07T00:16:13.829Z,96067.00
2022-12-07T00:16:23.780Z,96069.00
2022-12-07T00:16:33.798Z,96067.00
2022-12-07T00:16:43.846Z,96067.00
2022-12-07T00:16:53.780Z,96069.00
2022-12-07T00:17:03.791Z,96069.00
2022-12-07T00:17:13.730Z,96071.00
2022-12-07T00:17:23.738Z,96069.00
2022-12-07T00:17:33.729Z,96071.00
2022-12-07T00:17:43.729Z,96071.00
2022-12-07T00:17:53.760Z,96067.00
2022-12-07T00:18:03.721Z,96067.00
2022-12-07T00:18:13.750Z,96067.00
2022-12-07T00:18:23.722Z,96067.00
2022-12-07T00:18:33.724Z,96067.00
2022-12-07T00:18:43.725Z,96065.00
2022-12-07T00:18:53.723Z,96067.00
2022-12-07T00:19:03.735Z,96069.00
2022-12-07T00:19:13.724Z,96067.00
2022-12-07T00:19:23.721Z,96067.00
2022-12-07T00:19:33.731Z,96067.00
2022-12-07T00:19:43.721Z,96065.00
2022-12-07T00:19:53.721Z,96065.00
2022-12-07T00:20:04.087Z,96067.00
2022-12-07T00:20:13.723Z,96067.00
2022-12-07T00:20:23.714Z,96063.00
2022-12-07T00:20:33.732Z,96065.00
2022-12-07T00:20:43.724Z,96065.00
2022-12-07T00:20:53.719Z,96065.00
2022-12-07T00:21:03.721Z,96065.00
2022-12-07T00:21:13.722Z,96065.00
2022-12-07T00:21:23.721Z,96065.00
2022-12-07T00:21:33.728Z,96067.00
2022-12-07T00:21:43.711Z,96065.00
2022-12-07T00:21:53.732Z,96065.00
2022-12-07T00:22:03.715Z,96065.00
2022-12-07T00:22:13.712Z,96065.00
2022-12-07T00:22:23.711Z,96065.00
2022-12-07T00:22:33.719Z,96067.00
2022-12-07T00:22:43.711Z,96067.00
2022-12-07T00:22:53.741Z,96067.00
2022-12-07T00:23:03.715Z,96065.00
2022-12-07T00:23:13.792Z,96065.00
2022-12-07T00:23:23.742Z,96065.00
2022-12-07T00:23:33.710Z,96065.00
2022-12-07T00:23:43.704Z,96067.00
2022-12-07T00:23:53.702Z,96063.00
2022-12-07T00:24:03.706Z,96065.00
2022-12-07T00:24:13.755Z,96063.00
2022-12-07T00:24:23.705Z,96063.00
2022-12-07T00:24:33.704Z,96065.00
2022-12-07T00:24:43.702Z,96065.00
2022-12-07T00:24:53.703Z,96067.00
2022-12-07T00:25:03.704Z,96063.00
2022-12-07T00:25:13.702Z,96063.00
2022-12-07T00:25:23.702Z,96065.00
2022-12-07T00:25:33.704Z,96063.00
2022-12-07T00:25:43.713Z,96063.00
2022-12-07T00:25:53.703Z,96067.00
2022-12-07T00:26:03.715Z,96065.00
2022-12-07T00:26:13.703Z,96063.00
2022-12-07T00:26:23.702Z,96063.00
2022-12-07T00:26:33.693Z,96065.00
2022-12-07T00:26:43.695Z,96065.00
2022-12-07T00:26:53.694Z,96065.00
2022-12-07T00:27:03.698Z,96063.00
2022-12-07T00:27:13.693Z,96065.00
2022-12-07T00:27:23.703Z,96065.00
2022-12-07T00:27:33.703Z,96067.00
2022-12-07T00:27:43.685Z,96065.00
2022-12-07T00:27:53.694Z,96065.00
2022-12-07T00:28:03.713Z,96065.00
2022-12-07T00:28:13.696Z,96065.00
2022-12-07T00:28:23.695Z,96067.00
2022-12-07T00:28:33.727Z,96063.00
2022-12-07T00:28:43.693Z,96067.00
2022-12-07T00:28:53.693Z,96067.00
2022-12-07T00:29:03.687Z,96065.00
2022-12-07T00:29:13.696Z,96065.00
2022-12-07T00:29:23.693Z,96065.00
2022-12-07T00:29:33.695Z,96063.00
2022-12-07T00:29:43.693Z,96065.00
2022-12-07T00:29:53.684Z,96063.00
2022-12-07T00:30:04.246Z,96063.00
2022-12-07T00:30:13.684Z,96065.00
2022-12-07T00:30:23.693Z,96065.00
2022-12-07T00:30:33.973Z,96063.00
2022-12-07T00:30:43.687Z,96061.00
2022-12-07T00:30:53.685Z,96065.00
2022-12-07T00:31:04.121Z,96063.00
2022-12-07T00:31:13.785Z,96063.00
2022-12-07T00:31:23.736Z,96063.00
2022-12-07T00:31:33.741Z,96063.00
2022-12-07T00:31:43.730Z,96063.00
2022-12-07T00:31:53.736Z,96063.00
2022-12-07T00:32:03.772Z,96063.00
2022-12-07T00:32:13.770Z,96063.00
2022-12-07T00:32:23.675Z,96063.00
2022-12-07T00:32:33.677Z,96063.00
2022-12-07T00:32:43.675Z,96063.00
2022-12-07T00:32:53.677Z,96061.00
2022-12-07T00:33:03.675Z,96061.00
2022-12-07T00:33:13.705Z,96065.00
2022-12-07T00:33:23.675Z,96063.00
2022-12-07T00:33:33.674Z,96061.00
2022-12-07T00:33:43.706Z,96061.00
2022-12-07T00:33:53.675Z,96063.00
2022-12-07T00:34:03.675Z,96065.00
2022-12-07T00:34:13.676Z,96067.00
2022-12-07T00:34:23.675Z,96063.00
2022-12-07T00:34:33.775Z,96063.00
2022-12-07T00:34:43.666Z,96063.00
2022-12-07T00:34:53.666Z,96063.00
2022-12-07T00:35:03.667Z,96065.00
2022-12-07T00:35:13.677Z,96063.00
2022-12-07T00:35:23.675Z,96063.00
2022-12-07T00:35:33.675Z,96061.00
2022-12-07T00:35:43.674Z,96063.00
2022-12-07T00:35:53.667Z,96065.00
2022-12-07T00:36:03.685Z,96065.00
2022-12-07T00:36:13.686Z,96063.00
2022-12-07T00:36:26.958Z,96065.00
2022-12-07T00:36:33.670Z,96063.00
2022-12-07T00:36:43.763Z,96065.00
2022-12-07T00:36:53.664Z,96065.00
2022-12-07T00:37:03.655Z,96065.00
2022-12-07T00:37:13.670Z,96063.00
2022-12-07T00:37:23.656Z,96063.00
2022-12-07T00:37:33.664Z,96065.00
2022-12-07T00:37:43.666Z,96059.00
2022-12-07T00:37:53.657Z,96063.00
2022-12-07T00:38:03.666Z,96063.00
2022-12-07T00:38:13.737Z,96063.00
2022-12-07T00:38:23.701Z,96063.00
2022-12-07T00:38:33.668Z,96063.00
2022-12-07T00:38:43.667Z,96063.00
2022-12-07T00:38:53.696Z,96065.00
2022-12-07T00:39:05.097Z,96063.00
2022-12-07T00:39:13.798Z,96063.00
2022-12-07T00:39:25.597Z,96061.00
2022-12-07T00:39:33.767Z,96063.00
2022-12-07T00:39:45.595Z,96061.00
2022-12-07T00:39:53.659Z,96063.00
2022-12-07T00:40:03.967Z,96059.00
2022-12-07T00:40:13.656Z,96061.00
2022-12-07T00:40:23.658Z,96059.00
2022-12-07T00:40:33.806Z,96057.00
2022-12-07T00:40:43.653Z,96059.00
2022-12-07T00:40:53.648Z,96059.00
2022-12-07T00:41:05.586Z,96059.00
2022-12-07T00:41:13.649Z,96059.00
2022-12-07T00:41:23.646Z,96059.00
2022-12-07T00:41:33.648Z,96057.00
2022-12-07T00:41:43.646Z,96057.00
2022-12-07T00:41:53.648Z,96059.00
2022-12-07T00:42:03.648Z,96059.00
2022-12-07T00:42:13.650Z,96059.00
2022-12-07T00:42:23.638Z,96061.00
2022-12-07T00:42:33.645Z,96059.00
2022-12-07T00:42:43.639Z,96057.00
2022-12-07T00:42:53.649Z,96059.00
2022-12-07T00:43:03.647Z,96057.00
2022-12-07T00:43:13.650Z,96057.00
2022-12-07T00:43:23.661Z,96057.00
2022-12-07T00:43:33.627Z,96057.00
2022-12-07T00:43:43.966Z,96057.00
2022-12-07T00:43:55.580Z,96055.00
2022-12-07T00:44:05.097Z,96057.00
2022-12-07T00:44:13.637Z,96057.00
2022-12-07T00:44:23.628Z,96057.00
2022-12-07T00:44:33.628Z,96057.00
2022-12-07T00:44:43.628Z,96059.00
2022-12-07T00:44:53.629Z,96059.00
2022-12-07T00:45:03.801Z,96057.00
2022-12-07T00:45:13.630Z,96057.00
2022-12-07T00:45:23.627Z,96057.00
2022-12-07T00:45:33.705Z,96059.00
2022-12-07T00:45:43.661Z,96057.00
2022-12-07T00:45:53.773Z,96057.00
2022-12-07T00:46:04.329Z,96057.00
2022-12-07T00:46:13.667Z,96057.00
2022-12-07T00:46:23.696Z,96057.00
2022-12-07T00:46:33.699Z,96059.00
2022-12-07T00:46:43.629Z,96059.00
2022-12-07T00:46:53.630Z,96057.00
2022-12-07T00:47:03.642Z,96059.00
2022-12-07T00:47:13.639Z,96057.00
2022-12-07T00:47:23.630Z,96059.00
2022-12-07T00:47:33.629Z,96057.00
2022-12-07T00:47:43.629Z,96057.00
2022-12-07T00:47:53.629Z,96059.00
2022-12-07T00:48:03.621Z,96057.00
2022-12-07T00:48:13.631Z,96057.00
2022-12-07T00:48:23.628Z,96059.00
2022-12-07T00:48:33.644Z,96059.00
2022-12-07T00:48:43.622Z,96057.00
2022-12-07T00:48:53.620Z,96061.00
2022-12-07T00:49:03.624Z,96059.00
2022-12-07T00:49:13.639Z,96061.00
2022-12-07T00:49:23.629Z,96061.00
2022-12-07T00:49:33.619Z,96061.00
2022-12-07T00:49:43.620Z,96059.00
2022-12-07T00:49:55.060Z,96063.00
2022-12-07T00:50:04.545Z,96061.00
2022-12-07T00:50:14.269Z,96061.00
2022-12-07T00:50:23.614Z,96059.00
2022-12-07T00:50:33.621Z,96061.00
2022-12-07T00:50:43.981Z,96061.00
2022-12-07T00:50:53.622Z,96061.00
2022-12-07T00:51:05.560Z,96061.00
2022-12-07T00:51:13.620Z,96063.00
2022-12-07T00:51:23.620Z,96061.00
2022-12-07T00:51:33.614Z,96061.00
2022-12-07T00:51:43.622Z,96061.00
2022-12-07T00:51:53.620Z,96063.00
2022-12-07T00:52:03.620Z,96061.00
2022-12-07T00:52:13.618Z,96057.00
2022-12-07T00:52:23.621Z,96059.00
2022-12-07T00:52:33.621Z,96059.00
2022-12-07T00:52:43.610Z,96059.00
2022-12-07T00:52:53.621Z,96059.00
2022-12-07T00:53:03.612Z,96057.00
2022-12-07T00:53:14.091Z,96059.00
2022-12-07T00:53:23.610Z,96057.00
2022-12-07T00:53:38.107Z,96057.00
2022-12-07T00:53:43.631Z,96059.00
2022-12-07T00:53:53.613Z,96057.00
2022-12-07T00:54:03.620Z,96057.00
2022-12-07T00:54:13.603Z,96057.00
2022-12-07T00:54:23.641Z,96059.00
2022-12-07T00:54:33.612Z,96057.00
2022-12-07T00:54:43.601Z,96055.00
2022-12-07T00:54:53.610Z,96055.00
2022-12-07T00:55:03.601Z,96057.00
2022-12-07T00:55:13.605Z,96053.00
2022-12-07T00:55:23.602Z,96055.00
2022-12-07T00:55:33.602Z,96057.00
2022-12-07T00:55:43.601Z,96055.00
2022-12-07T00:55:53.647Z,96055.00
2022-12-07T00:56:03.604Z,96055.00
2022-12-07T00:56:13.654Z,96055.00
2022-12-07T00:56:23.606Z,96057.00
2022-12-07T00:56:33.608Z,96055.00
2022-12-07T00:56:43.597Z,96055.00
2022-12-07T00:56:53.595Z,96053.00
2022-12-07T00:57:03.592Z,96057.00
2022-12-07T00:57:13.593Z,96055.00
2022-12-07T00:57:23.591Z,96057.00
2022-12-07T00:57:33.592Z,96057.00
2022-12-07T00:57:43.593Z,96057.00
2022-12-07T00:57:53.600Z,96059.00
2022-12-07T00:58:03.714Z,96059.00
2022-12-07T00:58:13.593Z,96055.00
2022-12-07T00:58:23.592Z,96059.00
2022-12-07T00:58:33.583Z,96057.00
2022-12-07T00:58:43.610Z,96057.00
2022-12-07T00:58:53.625Z,96057.00
2022-12-07T00:59:03.582Z,96057.00
2022-12-07T00:59:13.593Z,96059.00
2022-12-07T00:59:23.587Z,96059.00
2022-12-07T00:59:33.695Z,96059.00
2022-12-07T00:59:43.582Z,96059.00
2022-12-07T00:59:53.592Z,96057.00
2022-12-07T01:00:03.903Z,96061.00
2022-12-07T01:00:13.592Z,96059.00
2022-12-07T01:00:23.584Z,96061.00
2022-12-07T01:00:33.583Z,96059.00
2022-12-07T01:00:43.583Z,96057.00
2022-12-07T01:00:53.630Z,96059.00
2022-12-07T01:01:03.654Z,96057.00
2022-12-07T01:01:13.633Z,96055.00
2022-12-07T01:01:23.673Z,96055.00
2022-12-07T01:01:33.642Z,96055.00
2022-12-07T01:01:43.663Z,96055.00
2022-12-07T01:01:53.664Z,96057.00
2022-12-07T01:02:03.574Z,96055.00
2022-12-07T01:02:13.574Z,96055.00
2022-12-07T01:02:23.579Z,96055.00
2022-12-07T01:02:33.574Z,96055.00
2022-12-07T01:02:43.564Z,96055.00
2022-12-07T01:02:53.624Z,96057.00
2022-12-07T01:03:03.604Z,96053.00
2022-12-07T01:03:13.638Z,96055.00
2022-12-07T01:03:23.619Z,96055.00
2022-12-07T01:03:33.644Z,96055.00
2022-12-07T01:03:43.658Z,96057.00
2022-12-07T01:03:53.572Z,96055.00
2022-12-07T01:04:03.595Z,96051.00
2022-12-07T01:04:13.574Z,96055.00
2022-12-07T01:04:23.575Z,96055.00
2022-12-07T01:04:33.579Z,96053.00
2022-12-07T01:04:43.574Z,96055.00
2022-12-07T01:04:53.575Z,96055.00
2022-12-07T01:05:03.565Z,96055.00
2022-12-07T01:05:13.565Z,96053.00
2022-12-07T01:05:23.566Z,96049.00
2022-12-07T01:05:33.565Z,96055.00
2022-12-07T01:05:43.564Z,96055.00
2022-12-07T01:05:53.568Z,96055.00
2022-12-07T01:06:03.566Z,96055.00
2022-12-07T01:06:13.565Z,96055.00
2022-12-07T01:06:23.555Z,96053.00
2022-12-07T01:06:33.574Z,96053.00
2022-12-07T01:06:43.556Z,96057.00
2022-12-07T01:06:53.566Z,96053.00
2022-12-07T01:07:03.565Z,96055.00
2022-12-07T01:07:13.554Z,96055.00
2022-12-07T01:07:23.555Z,96057.00
2022-12-07T01:07:33.642Z,96055.00
2022-12-07T01:07:43.644Z,96057.00
2022-12-07T01:07:53.590Z,96055.00
2022-12-07T01:08:03.939Z,96057.00
2022-12-07T01:08:13.591Z,96055.00
2022-12-07T01:08:23.614Z,96055.00
2022-12-07T01:08:33.555Z,96055.00
2022-12-07T01:08:43.555Z,96057.00
2022-12-07T01:08:53.555Z,96055.00
2022-12-07T01:09:04.126Z,96053.00
2022-12-07T01:09:13.576Z,96057.00
2022-12-07T01:09:23.555Z,96053.00
2022-12-07T01:09:33.548Z,96053.00
2022-12-07T01:09:43.546Z,96055.00
2022-12-07T01:09:53.576Z,96053.00
2022-12-07T01:10:04.117Z,96055.00
2022-12-07T01:10:13.987Z,96055.00
2022-12-07T01:10:23.546Z,96053.00
2022-12-07T01:10:33.545Z,96055.00
2022-12-07T01:10:43.546Z,96057.00
2022-12-07T01:10:53.548Z,96059.00
2022-12-07T01:11:03.546Z,96055.00
2022-12-07T01:11:13.547Z,96059.00
2022-12-07T01:11:23.546Z,96057.00
2022-12-07T01:11:33.537Z,96057.00
2022-12-07T01:11:43.547Z,96057.00
2022-12-07T01:11:54.975Z,96059.00
2022-12-07T01:12:04.026Z,96059.00
2022-12-07T01:12:13.537Z,96057.00
2022-12-07T01:12:23.538Z,96061.00
2022-12-07T01:12:33.537Z,96059.00
2022-12-07T01:12:43.536Z,96059.00
2022-12-07T01:12:53.537Z,96059.00
2022-12-07T01:13:03.548Z,96059.00
2022-12-07T01:13:13.528Z,96059.00
2022-12-07T01:13:23.536Z,96057.00
2022-12-07T01:13:33.528Z,96061.00
2022-12-07T01:13:43.528Z,96061.00
2022-12-07T01:13:53.527Z,96059.00
2022-12-07T01:14:05.468Z,96059.00
2022-12-07T01:14:13.528Z,96059.00
2022-12-07T01:14:23.558Z,96057.00
2022-12-07T01:14:33.528Z,96057.00
2022-12-07T01:14:43.526Z,96057.00
2022-12-07T01:14:55.466Z,96057.00
2022-12-07T01:15:03.619Z,96055.00
2022-12-07T01:15:13.539Z,96055.00
2022-12-07T01:15:23.527Z,96057.00
2022-12-07T01:15:33.526Z,96057.00
2022-12-07T01:15:43.531Z,96057.00
2022-12-07T01:15:53.527Z,96057.00
2022-12-07T01:16:03.628Z,96055.00
2022-12-07T01:16:13.657Z,96057.00
2022-12-07T01:16:23.556Z,96057.00
2022-12-07T01:16:33.621Z,96057.00
2022-12-07T01:16:43.614Z,96059.00
2022-12-07T01:16:53.537Z,96059.00
2022-12-07T01:17:03.592Z,96057.00
2022-12-07T01:17:13.584Z,96059.00
2022-12-07T01:17:23.509Z,96057.00
2022-12-07T01:17:33.508Z,96057.00
2022-12-07T01:17:43.509Z,96059.00
2022-12-07T01:17:53.519Z,96057.00
2022-12-07T01:18:03.582Z,96057.00
2022-12-07T01:18:13.512Z,96057.00
2022-12-07T01:18:23.509Z,96059.00
2022-12-07T01:18:33.509Z,96059.00
2022-12-07T01:18:43.519Z,96061.00
2022-12-07T01:18:53.509Z,96057.00
2022-12-07T01:19:03.519Z,96059.00
2022-12-07T01:19:13.508Z,96057.00
2022-12-07T01:19:23.511Z,96057.00
2022-12-07T01:19:33.529Z,96057.00
2022-12-07T01:19:43.511Z,96059.00
2022-12-07T01:19:53.519Z,96055.00
2022-12-07T01:20:03.838Z,96057.00
2022-12-07T01:20:13.523Z,96055.00
2022-12-07T01:20:23.500Z,96057.00
2022-12-07T01:20:33.500Z,96057.00
2022-12-07T01:20:43.509Z,96055.00
2022-12-07T01:20:53.509Z,96055.00
2022-12-07T01:21:03.500Z,96057.00
2022-12-07T01:21:13.509Z,96055.00
2022-12-07T01:21:23.503Z,96057.00
2022-12-07T01:21:33.500Z,96057.00
2022-12-07T01:21:43.519Z,96057.00
2022-12-07T01:21:53.500Z,96059.00
2022-12-07T01:22:03.654Z,96059.00
2022-12-07T01:22:13.500Z,96057.00
2022-12-07T01:22:23.493Z,96057.00
2022-12-07T01:22:33.491Z,96055.00
2022-12-07T01:22:43.491Z,96057.00
2022-12-07T01:22:53.498Z,96057.00
2022-12-07T01:23:03.500Z,96059.00
2022-12-07T01:23:13.552Z,96059.00
2022-12-07T01:23:23.490Z,96061.00
2022-12-07T01:23:33.491Z,96061.00
2022-12-07T01:23:43.492Z,96063.00
2022-12-07T01:23:53.786Z,96063.00
2022-12-07T01:24:03.824Z,96061.00
2022-12-07T01:24:13.497Z,96061.00
2022-12-07T01:24:23.492Z,96063.00
2022-12-07T01:24:33.492Z,96063.00
2022-12-07T01:24:43.521Z,96061.00
2022-12-07T01:24:53.822Z,96063.00
2022-12-07T01:25:03.524Z,96061.00
2022-12-07T01:25:13.491Z,96063.00
2022-12-07T01:25:23.591Z,96059.00
2022-12-07T01:25:33.490Z,96061.00
2022-12-07T01:25:43.496Z,96059.00
2022-12-07T01:25:53.481Z,96059.00
2022-12-07T01:26:03.530Z,96061.00
2022-12-07T01:26:13.591Z,96057.00
2022-12-07T01:26:23.492Z,96061.00
2022-12-07T01:26:33.490Z,96059.00
2022-12-07T01:26:43.482Z,96061.00
2022-12-07T01:26:53.481Z,96057.00
2022-12-07T01:27:03.681Z,96059.00
2022-12-07T01:27:13.490Z,96061.00
2022-12-07T01:27:23.483Z,96063.00
2022-12-07T01:27:33.472Z,96061.00
2022-12-07T01:27:43.494Z,96063.00
2022-12-07T01:27:53.481Z,96061.00
2022-12-07T01:28:03.484Z,96061.00
2022-12-07T01:28:13.482Z,96063.00
2022-12-07T01:28:23.471Z,96061.00
2022-12-07T01:28:33.473Z,96063.00
2022-12-07T01:28:43.463Z,96065.00
2022-12-07T01:28:53.473Z,96063.00
2022-12-07T01:29:03.547Z,96061.00
2022-12-07T01:29:13.473Z,96063.00
2022-12-07T01:29:23.472Z,96069.00
2022-12-07T01:29:33.475Z,96063.00
2022-12-07T01:29:43.492Z,96065.00
2022-12-07T01:29:53.472Z,96063.00
2022-12-07T01:30:03.787Z,96063.00
2022-12-07T01:30:13.647Z,96061.00
2022-12-07T01:30:23.607Z,96061.00
2022-12-07T01:30:33.543Z,96061.00
2022-12-07T01:30:43.502Z,96059.00
2022-12-07T01:30:53.888Z,96063.00
2022-12-07T01:31:03.582Z,96061.00
2022-12-07T01:31:13.521Z,96063.00
2022-12-07T01:31:23.513Z,96063.00
2022-12-07T01:31:33.465Z,96061.00
2022-12-07T01:31:43.463Z,96061.00
2022-12-07T01:31:53.463Z,96063.00
2022-12-07T01:32:03.466Z,96063.00
2022-12-07T01:32:13.461Z,96061.00
2022-12-07T01:32:23.464Z,96061.00
2022-12-07T01:32:33.465Z,96063.00
2022-12-07T01:32:43.463Z,96063.00
2022-12-07T01:32:53.461Z,96061.00
2022-12-07T01:33:03.462Z,96061.00
2022-12-07T01:33:13.462Z,96063.00
2022-12-07T01:33:23.454Z,96061.00
2022-12-07T01:33:33.456Z,96065.00
2022-12-07T01:33:43.454Z,96063.00
2022-12-07T01:33:53.563Z,96061.00
2022-12-07T01:34:03.502Z,96063.00
2022-12-07T01:34:13.457Z,96063.00
2022-12-07T01:34:23.453Z,96061.00
2022-12-07T01:34:33.455Z,96063.00
2022-12-07T01:34:43.466Z,96063.00
2022-12-07T01:34:53.484Z,96061.00
2022-12-07T01:35:03.464Z,96063.00
2022-12-07T01:35:13.446Z,96063.00
2022-12-07T01:35:23.466Z,96063.00
2022-12-07T01:35:33.449Z,96061.00
2022-12-07T01:35:43.464Z,96061.00
2022-12-07T01:35:53.454Z,96061.00
2022-12-07T01:36:05.393Z,96061.00
2022-12-07T01:36:14.887Z,96061.00
2022-12-07T01:36:23.453Z,96059.00
2022-12-07T01:36:33.446Z,96061.00
2022-12-07T01:36:43.445Z,96059.00
2022-12-07T01:36:53.437Z,96059.00
2022-12-07T01:37:03.446Z,96061.00
2022-12-07T01:37:13.434Z,96059.00
2022-12-07T01:37:23.435Z,96061.00
2022-12-07T01:37:33.435Z,96063.00
2022-12-07T01:37:43.445Z,96061.00
2022-12-07T01:37:53.435Z,96063.00
2022-12-07T01:38:03.486Z,96063.00
2022-12-07T01:38:13.439Z,96063.00
2022-12-07T01:38:23.436Z,96065.00
2022-12-07T01:38:33.436Z,96063.00
2022-12-07T01:38:43.426Z,96065.00
2022-12-07T01:38:53.496Z,96063.00
2022-12-07T01:39:04.874Z,96063.00
2022-12-07T01:39:13.685Z,96067.00
2022-12-07T01:39:23.443Z,96063.00
2022-12-07T01:39:33.437Z,96063.00
2022-12-07T01:39:43.436Z,96063.00
2022-12-07T01:39:53.436Z,96065.00
2022-12-07T01:40:03.833Z,96063.00
2022-12-07T01:40:13.440Z,96061.00
2022-12-07T01:40:23.431Z,96059.00
2022-12-07T01:40:33.538Z,96059.00
2022-12-07T01:40:43.446Z,96059.00
2022-12-07T01:40:53.566Z,96057.00
2022-12-07T01:41:03.450Z,96057.00
2022-12-07T01:41:13.430Z,96059.00
2022-12-07T01:41:23.427Z,96057.00
2022-12-07T01:41:33.427Z,96055.00
2022-12-07T01:41:43.427Z,96053.00
2022-12-07T01:41:53.427Z,96053.00
2022-12-07T01:42:03.455Z,96053.00
2022-12-07T01:42:13.426Z,96051.00
2022-12-07T01:42:23.425Z,96051.00
2022-12-07T01:42:33.416Z,96053.00
2022-12-07T01:42:43.426Z,96051.00
2022-12-07T01:42:53.426Z,96055.00
2022-12-07T01:43:03.428Z,96055.00
2022-12-07T01:43:13.429Z,96051.00
2022-12-07T01:43:23.419Z,96049.00
2022-12-07T01:43:33.418Z,96055.00
2022-12-07T01:43:43.419Z,96057.00
2022-12-07T01:43:53.450Z,96057.00
2022-12-07T01:44:03.575Z,96053.00
2022-12-07T01:44:13.429Z,96055.00
2022-12-07T01:44:23.427Z,96057.00
2022-12-07T01:44:33.417Z,96057.00
2022-12-07T01:44:43.417Z,96059.00
2022-12-07T01:44:53.417Z,96059.00
2022-12-07T01:45:03.419Z,96059.00
2022-12-07T01:45:13.438Z,96057.00
2022-12-07T01:45:23.548Z,96059.00
2022-12-07T01:45:33.557Z,96059.00
2022-12-07T01:45:43.476Z,96059.00
2022-12-07T01:45:53.432Z,96059.00
2022-12-07T01:46:03.509Z,96057.00
2022-12-07T01:46:13.452Z,96059.00
2022-12-07T01:46:23.441Z,96059.00
2022-12-07T01:46:33.504Z,96059.00
2022-12-07T01:46:43.431Z,96055.00
2022-12-07T01:46:53.417Z,96059.00
2022-12-07T01:47:03.414Z,96057.00
2022-12-07T01:47:13.409Z,96057.00
2022-12-07T01:47:23.409Z,96057.00
2022-12-07T01:47:33.419Z,96057.00
2022-12-07T01:47:43.409Z,96055.00
2022-12-07T01:47:53.409Z,96057.00
2022-12-07T01:48:03.407Z,96055.00
2022-12-07T01:48:13.412Z,96057.00
2022-12-07T01:48:23.403Z,96057.00
2022-12-07T01:48:33.417Z,96057.00
2022-12-07T01:48:43.400Z,96055.00
2022-12-07T01:48:53.405Z,96055.00
2022-12-07T01:49:03.400Z,96055.00
2022-12-07T01:49:13.399Z,96053.00
2022-12-07T01:49:23.401Z,96053.00
2022-12-07T01:49:33.399Z,96057.00
2022-12-07T01:49:43.648Z,96055.00
2022-12-07T01:49:53.401Z,96057.00
2022-12-07T01:50:03.727Z,96057.00
2022-12-07T01:50:13.421Z,96057.00
2022-12-07T01:50:23.400Z,96057.00
2022-12-07T01:50:33.410Z,96057.00
2022-12-07T01:50:43.419Z,96059.00
2022-12-07T01:50:53.399Z,96057.00
2022-12-07T01:51:03.391Z,96059.00
2022-12-07T01:51:13.410Z,96061.00
2022-12-07T01:51:23.429Z,96059.00
2022-12-07T01:51:33.561Z,96057.00
2022-12-07T01:51:43.399Z,96059.00
2022-12-07T01:51:53.392Z,96059.00
2022-12-07T01:52:03.392Z,96063.00
2022-12-07T01:52:13.389Z,96061.00
2022-12-07T01:52:23.390Z,96057.00
2022-12-07T01:52:33.393Z,96059.00
2022-12-07T01:52:43.399Z,96057.00
2022-12-07T01:52:53.391Z,96057.00
2022-12-07T01:53:03.391Z,96059.00
2022-12-07T01:53:13.394Z,96057.00
2022-12-07T01:53:23.389Z,96057.00
2022-12-07T01:53:33.391Z,96055.00
2022-12-07T01:53:45.330Z,96057.00
2022-12-07T01:53:53.381Z,96055.00
2022-12-07T01:54:03.382Z,96057.00
2022-12-07T01:54:13.385Z,96057.00
2022-12-07T01:54:23.380Z,96057.00
2022-12-07T01:54:33.383Z,96057.00
2022-12-07T01:54:43.393Z,96057.00
2022-12-07T01:54:53.380Z,96057.00
2022-12-07T01:55:03.392Z,96055.00
2022-12-07T01:55:13.382Z,96057.00
2022-12-07T01:55:23.401Z,96057.00
2022-12-07T01:55:33.381Z,96057.00
2022-12-07T01:55:43.430Z,96055.00
2022-12-07T01:55:53.370Z,96055.00
2022-12-07T01:56:03.385Z,96059.00
2022-12-07T01:56:13.384Z,96057.00
2022-12-07T01:56:23.402Z,96051.00
2022-12-07T01:56:33.372Z,96057.00
2022-12-07T01:56:43.375Z,96055.00
2022-12-07T01:56:53.377Z,96051.00
2022-12-07T01:57:03.373Z,96055.00
2022-12-07T01:57:13.371Z,96053.00
2022-12-07T01:57:23.379Z,96053.00